Terminal Aerodrome Forecast
Issued by NWS

Home | Current Version | Previous Version | Text Only | Print | Product List | Glossary On
Versions: 1 2 3 4 5 6 7 8 9 10 11 12 13 14 15 16 17 18 19 20 21 22 23 24 25 26 27 28 29 30 31 32 33 34 35 36
000
FTAK31 PAFA 291248 AAA
TAFABT
TAF AMD
PABT 291248Z 2913/3012 35003KT 1 1/2SM -SN BR OVC020
     FM292100 35005KT 6SM -SN BR SCT015 OVC050=

USA.gov is the U.S. government's official web portal to all federal, state and local government web resources and services.